Terminal Aerodrome Forecast
Issued by NWS

Home | Current Version | Previous Version | Text Only | Print | Product List | Glossary On
Versions: 1 2 3 4 5 6 7 8 9 10 11 12 13 14 15 16 17 18 19 20 21 22 23 24 25 26 27 28 29 30 31 32 33 34 35 36 37 38 39 40 41 42 43 44 45 46 47 48 49 50
557
FTUS44 KHGX 290324 AAA
TAFIAH
TAF AMD
KIAH 290324Z 2903/3006 14016KT P6SM SCT016 OVC027
     FM290400 15011KT P6SM SCT007 OVC015
     FM291500 14014KT P6SM SCT015 BKN025
     FM291800 14016G26KT P6SM SCT025 BKN050
     FM300000 16017KT P6SM VCTS BKN035CB
     FM300400 16014KT P6SM VCSH BKN025=

USA.gov is the U.S. government's official web portal to all federal, state and local government web resources and services.